AAL1813 KMIA-MBPV
Flight info
| Callsign | AAL1813 |
|---|---|
| Flight time | 1h 17m |
| Altitude | 35000 |
| Route | KLADA2 BITAC DCT SOLEI |
| Aircraft | B738/M-SDE2E3FGHIRWXY/LB1 |
Departure
| Time | 2026-04-25 17:01 |
|---|---|
| Airport | Miami International Airport (KMIA) |
Arrival
| Time | 2026-04-25 18:19 |
|---|---|
| Airport | Providenciales International Airport (MBPV) |
| Time | Latitude | Longitude | Altitude | Speed | Heading |
|---|---|---|---|---|---|
| 2026-04-25 16:16 | 25.79640 | -80.28054 | 17 ft | 0 kts | 55° |
| 2026-04-25 16:50 | 25.79635 | -80.28062 | 19 ft | 4 kts | 50° |
| 2026-04-25 16:51 | 25.79616 | -80.28080 | 20 ft | 4 kts | 11° |
| 2026-04-25 16:51 | 25.79597 | -80.28075 | 18 ft | 3 kts | 299° |
| 2026-04-25 16:51 | 25.79596 | -80.28072 | 19 ft | 2 kts | 296° |
| 2026-04-25 16:54 | 25.79597 | -80.28074 | 18 ft | 1 kts | 298° |
| 2026-04-25 16:55 | 25.79601 | -80.28084 | 18 ft | 2 kts | 296° |
| 2026-04-25 16:55 | 25.79610 | -80.28103 | 20 ft | 3 kts | 296° |
| 2026-04-25 16:55 | 25.79623 | -80.28135 | 19 ft | 7 kts | 294° |
| 2026-04-25 16:55 | 25.79652 | -80.28216 | 18 ft | 16 kts | 296° |
| 2026-04-25 16:56 | 25.79673 | -80.28361 | 18 ft | 21 kts | 267° |
| 2026-04-25 16:56 | 25.79663 | -80.28522 | 18 ft | 21 kts | 261° |
| 2026-04-25 16:56 | 25.79646 | -80.28672 | 21 ft | 18 kts | 265° |
| 2026-04-25 16:56 | 25.79642 | -80.28753 | 19 ft | 9 kts | 273° |
| 2026-04-25 16:57 | 25.79674 | -80.28808 | 19 ft | 9 kts | 338° |
| 2026-04-25 16:57 | 25.79695 | -80.28812 | 19 ft | 9 kts | 355° |
| 2026-04-25 16:57 | 25.79797 | -80.28816 | 19 ft | 9 kts | 357° |
| 2026-04-25 16:57 | 25.79871 | -80.28820 | 20 ft | 12 kts | 357° |
| 2026-04-25 16:58 | 25.79952 | -80.28823 | 21 ft | 12 kts | 359° |
| 2026-04-25 16:58 | 25.80010 | -80.28872 | 22 ft | 12 kts | 284° |
| 2026-04-25 16:58 | 25.80009 | -80.28978 | 19 ft | 17 kts | 267° |
| 2026-04-25 16:58 | 25.80002 | -80.29126 | 20 ft | 20 kts | 267° |
| 2026-04-25 16:59 | 25.79996 | -80.29277 | 19 ft | 19 kts | 265° |
| 2026-04-25 16:59 | 25.79992 | -80.29426 | 14 ft | 20 kts | 267° |
| 2026-04-25 16:59 | 25.79984 | -80.29591 | 13 ft | 22 kts | 269° |
| 2026-04-25 16:59 | 25.79977 | -80.29756 | 15 ft | 21 kts | 268° |
| 2026-04-25 17:00 | 25.79970 | -80.29914 | 11 ft | 20 kts | 268° |
| 2026-04-25 17:00 | 25.79973 | -80.30066 | 12 ft | 17 kts | 287° |
| 2026-04-25 17:00 | 25.80032 | -80.30128 | 14 ft | 11 kts | 351° |
| 2026-04-25 17:00 | 25.80075 | -80.30077 | 13 ft | 11 kts | 89° |
| 2026-04-25 17:01 | 25.80079 | -80.29934 | 11 ft | 44 kts | 87° |
| 2026-04-25 17:01 | 25.80105 | -80.29313 | 17 ft | 115 kts | 87° |
| 2026-04-25 17:01 | 25.80153 | -80.28218 | 123 ft | 163 kts | 90° |
| 2026-04-25 17:01 | 25.80251 | -80.26955 | 830 ft | 164 kts | 85° |
| 2026-04-25 17:02 | 25.80353 | -80.25674 | 1546 ft | 174 kts | 101° |
| 2026-04-25 17:02 | 25.79809 | -80.24358 | 1876 ft | 203 kts | 120° |
| 2026-04-25 17:02 | 25.79087 | -80.22893 | 2153 ft | 225 kts | 118° |
| 2026-04-25 17:02 | 25.78847 | -80.22389 | 2309 ft | 230 kts | 118° |
| 2026-04-25 17:03 | 25.77533 | -80.19578 | 3232 ft | 255 kts | 117° |
| 2026-04-25 17:03 | 25.76710 | -80.17811 | 4235 ft | 259 kts | 118° |
| 2026-04-25 17:03 | 25.75832 | -80.16026 | 5070 ft | 266 kts | 119° |
| 2026-04-25 17:03 | 25.74926 | -80.14208 | 5905 ft | 272 kts | 119° |
| 2026-04-25 17:04 | 25.74004 | -80.12354 | 6725 ft | 277 kts | 119° |
| 2026-04-25 17:04 | 25.73098 | -80.10441 | 7457 ft | 284 kts | 114° |
| 2026-04-25 17:04 | 25.72365 | -80.08410 | 8176 ft | 290 kts | 110° |
| 2026-04-25 17:04 | 25.71682 | -80.06283 | 8949 ft | 295 kts | 110° |
| 2026-04-25 17:05 | 25.70997 | -80.04114 | 9751 ft | 300 kts | 110° |
| 2026-04-25 17:05 | 25.69538 | -79.99568 | 10584 ft | 334 kts | 110° |
| 2026-04-25 17:05 | 25.69006 | -79.97935 | 10848 ft | 345 kts | 110° |
| 2026-04-25 17:06 | 25.68177 | -79.95411 | 11473 ft | 351 kts | 110° |
| 2026-04-25 17:06 | 25.67055 | -79.92011 | 12456 ft | 356 kts | 111° |
| 2026-04-25 17:06 | 25.66475 | -79.90261 | 12936 ft | 359 kts | 111° |
| 2026-04-25 17:06 | 25.65605 | -79.87642 | 13643 ft | 364 kts | 111° |
| 2026-04-25 17:07 | 25.64734 | -79.85024 | 14267 ft | 369 kts | 111° |
| 2026-04-25 17:07 | 25.63842 | -79.82344 | 14901 ft | 372 kts | 111° |
| 2026-04-25 17:07 | 25.62938 | -79.79628 | 15543 ft | 376 kts | 111° |
| 2026-04-25 17:07 | 25.62024 | -79.76884 | 16188 ft | 380 kts | 111° |
| 2026-04-25 17:08 | 25.61103 | -79.74122 | 16816 ft | 384 kts | 111° |
| 2026-04-25 17:08 | 25.60168 | -79.71320 | 17449 ft | 388 kts | 111° |
| 2026-04-25 17:08 | 25.59225 | -79.68541 | 18044 ft | 393 kts | 112° |
| 2026-04-25 17:08 | 25.58211 | -79.65709 | 18598 ft | 397 kts | 113° |
| 2026-04-25 17:09 | 25.57164 | -79.62864 | 19145 ft | 400 kts | 113° |
| 2026-04-25 17:09 | 25.56101 | -79.59992 | 19678 ft | 404 kts | 113° |
| 2026-04-25 17:09 | 25.55030 | -79.57097 | 20207 ft | 408 kts | 113° |
| 2026-04-25 17:09 | 25.53953 | -79.54177 | 20735 ft | 411 kts | 112° |
| 2026-04-25 17:10 | 25.52869 | -79.51229 | 21256 ft | 415 kts | 112° |
| 2026-04-25 17:10 | 25.51788 | -79.48288 | 21736 ft | 419 kts | 112° |
| 2026-04-25 17:10 | 25.50684 | -79.45276 | 22239 ft | 423 kts | 112° |
| 2026-04-25 17:10 | 25.49572 | -79.42247 | 22731 ft | 426 kts | 112° |
| 2026-04-25 17:11 | 25.48451 | -79.39192 | 23219 ft | 430 kts | 112° |
| 2026-04-25 17:11 | 25.47318 | -79.36108 | 23663 ft | 433 kts | 112° |
| 2026-04-25 17:11 | 25.46178 | -79.33006 | 24072 ft | 436 kts | 112° |
| 2026-04-25 17:11 | 25.45044 | -79.29923 | 24481 ft | 439 kts | 112° |
| 2026-04-25 17:12 | 25.43890 | -79.26791 | 24888 ft | 441 kts | 112° |
| 2026-04-25 17:12 | 25.42723 | -79.23624 | 25290 ft | 444 kts | 113° |
| 2026-04-25 17:12 | 25.41551 | -79.20447 | 25670 ft | 447 kts | 113° |
| 2026-04-25 17:12 | 25.40371 | -79.17249 | 26052 ft | 450 kts | 113° |
| 2026-04-25 17:13 | 25.39184 | -79.14034 | 26428 ft | 452 kts | 113° |
| 2026-04-25 17:13 | 25.38391 | -79.11891 | 26674 ft | 454 kts | 113° |
| 2026-04-25 17:13 | 25.36782 | -79.07542 | 27157 ft | 458 kts | 113° |
| 2026-04-25 17:13 | 25.35583 | -79.04302 | 27510 ft | 460 kts | 114° |
| 2026-04-25 17:14 | 25.34365 | -79.01014 | 27863 ft | 463 kts | 114° |
| 2026-04-25 17:14 | 25.33137 | -78.97704 | 28203 ft | 465 kts | 114° |
| 2026-04-25 17:14 | 25.31906 | -78.94386 | 28543 ft | 468 kts | 114° |
| 2026-04-25 17:14 | 25.30666 | -78.91048 | 28880 ft | 470 kts | 114° |
| 2026-04-25 17:15 | 25.29416 | -78.87685 | 29214 ft | 473 kts | 114° |
| 2026-04-25 17:15 | 25.28178 | -78.84357 | 29532 ft | 475 kts | 114° |
| 2026-04-25 17:15 | 25.26918 | -78.80974 | 29842 ft | 478 kts | 114° |
| 2026-04-25 17:15 | 25.25648 | -78.77565 | 30132 ft | 480 kts | 114° |
| 2026-04-25 17:16 | 25.24374 | -78.74147 | 30396 ft | 481 kts | 114° |
| 2026-04-25 17:16 | 25.23096 | -78.70721 | 30672 ft | 483 kts | 114° |
| 2026-04-25 17:16 | 25.21809 | -78.67277 | 30944 ft | 484 kts | 114° |
| 2026-04-25 17:16 | 25.20525 | -78.63838 | 31291 ft | 483 kts | 114° |
| 2026-04-25 17:17 | 25.19258 | -78.60450 | 31661 ft | 481 kts | 114° |
| 2026-04-25 17:17 | 25.17976 | -78.57029 | 32032 ft | 480 kts | 115° |
| 2026-04-25 17:17 | 25.16648 | -78.53638 | 32333 ft | 480 kts | 116° |
| 2026-04-25 17:17 | 25.15273 | -78.50280 | 32636 ft | 480 kts | 117° |
| 2026-04-25 17:18 | 25.13880 | -78.46937 | 32948 ft | 479 kts | 117° |
| 2026-04-25 17:18 | 25.12480 | -78.43589 | 33294 ft | 478 kts | 117° |
| 2026-04-25 17:18 | 25.11105 | -78.40287 | 33611 ft | 478 kts | 117° |
| 2026-04-25 17:18 | 25.09723 | -78.36954 | 33927 ft | 477 kts | 117° |
| 2026-04-25 17:19 | 25.08345 | -78.33618 | 34172 ft | 477 kts | 117° |
| 2026-04-25 17:19 | 25.06968 | -78.30277 | 34385 ft | 478 kts | 117° |
| 2026-04-25 17:19 | 25.05591 | -78.26936 | 34589 ft | 479 kts | 117° |
| 2026-04-25 17:19 | 25.04212 | -78.23587 | 34842 ft | 478 kts | 117° |
| 2026-04-25 17:20 | 25.02832 | -78.20242 | 34975 ft | 481 kts | 117° |
| 2026-04-25 17:20 | 25.01442 | -78.16877 | 34967 ft | 483 kts | 117° |
| 2026-04-25 17:20 | 24.98673 | -78.10177 | 34957 ft | 480 kts | 117° |
| 2026-04-25 17:21 | 24.95914 | -78.03508 | 34968 ft | 475 kts | 118° |
| 2026-04-25 17:21 | 24.93166 | -77.96884 | 34969 ft | 475 kts | 118° |
| 2026-04-25 17:22 | 24.90877 | -77.91373 | 34976 ft | 475 kts | 118° |
| 2026-04-25 17:22 | 24.87669 | -77.83660 | 34976 ft | 475 kts | 118° |
| 2026-04-25 17:23 | 24.84924 | -77.77072 | 34980 ft | 476 kts | 118° |
| 2026-04-25 17:23 | 24.82151 | -77.70424 | 34980 ft | 477 kts | 118° |
| 2026-04-25 17:24 | 24.79388 | -77.63812 | 34978 ft | 478 kts | 118° |
| 2026-04-25 17:24 | 24.76600 | -77.57144 | 34975 ft | 479 kts | 118° |
| 2026-04-25 17:25 | 24.73548 | -77.50691 | 34976 ft | 475 kts | 127° |
| 2026-04-25 17:25 | 24.69798 | -77.44697 | 34967 ft | 475 kts | 130° |
| 2026-04-25 17:26 | 24.65969 | -77.38791 | 34969 ft | 476 kts | 130° |
| 2026-04-25 17:26 | 24.62165 | -77.32798 | 34969 ft | 477 kts | 129° |
| 2026-04-25 17:27 | 24.58403 | -77.26775 | 34968 ft | 478 kts | 129° |
| 2026-04-25 17:27 | 24.55915 | -77.22774 | 34965 ft | 478 kts | 129° |
| 2026-04-25 17:28 | 24.50908 | -77.14731 | 34967 ft | 477 kts | 129° |
| 2026-04-25 17:28 | 24.47152 | -77.08713 | 34966 ft | 477 kts | 130° |
| 2026-04-25 17:29 | 24.43413 | -77.02732 | 34965 ft | 476 kts | 130° |
| 2026-04-25 17:29 | 24.39654 | -76.96728 | 34963 ft | 476 kts | 130° |
| 2026-04-25 17:30 | 24.35926 | -76.90780 | 34963 ft | 475 kts | 130° |
| 2026-04-25 17:30 | 24.32167 | -76.84789 | 34966 ft | 475 kts | 130° |
| 2026-04-25 17:31 | 24.28416 | -76.78819 | 34967 ft | 475 kts | 130° |
| 2026-04-25 17:31 | 24.24661 | -76.72851 | 34962 ft | 475 kts | 130° |
| 2026-04-25 17:32 | 24.20924 | -76.66917 | 34965 ft | 476 kts | 130° |
| 2026-04-25 17:32 | 24.17144 | -76.60922 | 34965 ft | 477 kts | 130° |
| 2026-04-25 17:33 | 24.13388 | -76.54973 | 34965 ft | 478 kts | 130° |
| 2026-04-25 17:33 | 24.09599 | -76.48979 | 34962 ft | 479 kts | 130° |
| 2026-04-25 17:34 | 24.05795 | -76.42969 | 34964 ft | 480 kts | 131° |
| 2026-04-25 17:34 | 24.02002 | -76.36982 | 34963 ft | 481 kts | 131° |
| 2026-04-25 17:35 | 23.98183 | -76.30960 | 34962 ft | 481 kts | 131° |
| 2026-04-25 17:35 | 23.94359 | -76.24940 | 34958 ft | 482 kts | 131° |
| 2026-04-25 17:36 | 23.90544 | -76.18940 | 34961 ft | 482 kts | 131° |
| 2026-04-25 17:36 | 23.86701 | -76.12903 | 34957 ft | 483 kts | 131° |
| 2026-04-25 17:37 | 23.82859 | -76.06875 | 34960 ft | 483 kts | 131° |
| 2026-04-25 17:37 | 23.79035 | -76.00884 | 34957 ft | 483 kts | 131° |
| 2026-04-25 17:38 | 23.76456 | -75.96846 | 34962 ft | 483 kts | 131° |
| 2026-04-25 17:38 | 23.71343 | -75.88852 | 34964 ft | 483 kts | 131° |
| 2026-04-25 17:39 | 23.67483 | -75.82825 | 34957 ft | 483 kts | 131° |
| 2026-04-25 17:39 | 23.63646 | -75.76841 | 34955 ft | 484 kts | 131° |
| 2026-04-25 17:40 | 23.59771 | -75.70806 | 34950 ft | 484 kts | 131° |
| 2026-04-25 17:40 | 23.55926 | -75.64824 | 34952 ft | 484 kts | 131° |
| 2026-04-25 17:41 | 23.52056 | -75.58810 | 34952 ft | 484 kts | 131° |
| 2026-04-25 17:41 | 23.48196 | -75.52819 | 34953 ft | 485 kts | 131° |
| 2026-04-25 17:42 | 23.44308 | -75.46792 | 34954 ft | 485 kts | 131° |
| 2026-04-25 17:42 | 23.40413 | -75.40762 | 34950 ft | 486 kts | 131° |
| 2026-04-25 17:43 | 23.36541 | -75.34773 | 34953 ft | 487 kts | 131° |
| 2026-04-25 17:43 | 23.32625 | -75.28724 | 34952 ft | 488 kts | 131° |
| 2026-04-25 17:44 | 23.28696 | -75.22662 | 34952 ft | 489 kts | 131° |
| 2026-04-25 17:44 | 23.24780 | -75.16628 | 34949 ft | 491 kts | 131° |
| 2026-04-25 17:45 | 23.22142 | -75.12565 | 34954 ft | 491 kts | 131° |
| 2026-04-25 17:45 | 23.16897 | -75.04501 | 34948 ft | 494 kts | 130° |
| 2026-04-25 17:46 | 23.12916 | -74.98388 | 34961 ft | 496 kts | 130° |
| 2026-04-25 17:46 | 23.08932 | -74.92274 | 34943 ft | 492 kts | 131° |
| 2026-04-25 17:47 | 23.04977 | -74.86210 | 34946 ft | 490 kts | 131° |
| 2026-04-25 17:47 | 23.03003 | -74.83189 | 34841 ft | 492 kts | 131° |
| 2026-04-25 17:47 | 23.01043 | -74.80192 | 34496 ft | 490 kts | 131° |
| 2026-04-25 17:48 | 22.97127 | -74.74201 | 33714 ft | 482 kts | 131° |
| 2026-04-25 17:48 | 22.95194 | -74.71247 | 33282 ft | 479 kts | 131° |
| 2026-04-25 17:48 | 22.93291 | -74.68342 | 32872 ft | 475 kts | 130° |
| 2026-04-25 17:49 | 22.91378 | -74.65423 | 32472 ft | 471 kts | 130° |
| 2026-04-25 17:49 | 22.89483 | -74.62534 | 32079 ft | 468 kts | 130° |
| 2026-04-25 17:49 | 22.87599 | -74.59663 | 31694 ft | 464 kts | 130° |
| 2026-04-25 17:49 | 22.85732 | -74.56820 | 31309 ft | 461 kts | 130° |
| 2026-04-25 17:50 | 22.83874 | -74.53993 | 30928 ft | 458 kts | 130° |
| 2026-04-25 17:50 | 22.82036 | -74.51196 | 30540 ft | 450 kts | 130° |
| 2026-04-25 17:50 | 22.80257 | -74.48487 | 30170 ft | 441 kts | 130° |
| 2026-04-25 17:50 | 22.78491 | -74.45799 | 29760 ft | 432 kts | 130° |
| 2026-04-25 17:51 | 22.76762 | -74.43170 | 29355 ft | 422 kts | 130° |
| 2026-04-25 17:51 | 22.75073 | -74.40603 | 28991 ft | 413 kts | 130° |
| 2026-04-25 17:51 | 22.73437 | -74.38120 | 28618 ft | 406 kts | 130° |
| 2026-04-25 17:51 | 22.71810 | -74.35654 | 28260 ft | 398 kts | 130° |
| 2026-04-25 17:52 | 22.70180 | -74.33189 | 27924 ft | 406 kts | 130° |
| 2026-04-25 17:52 | 22.69640 | -74.32375 | 27815 ft | 410 kts | 130° |
| 2026-04-25 17:52 | 22.66853 | -74.28167 | 27226 ft | 414 kts | 130° |
| 2026-04-25 17:52 | 22.65181 | -74.25637 | 26855 ft | 409 kts | 130° |
| 2026-04-25 17:53 | 22.63529 | -74.23134 | 26470 ft | 405 kts | 130° |
| 2026-04-25 17:53 | 22.61918 | -74.20694 | 26092 ft | 402 kts | 130° |
| 2026-04-25 17:53 | 22.60296 | -74.18240 | 25717 ft | 398 kts | 130° |
| 2026-04-25 17:53 | 22.58687 | -74.15807 | 25351 ft | 395 kts | 130° |
| 2026-04-25 17:54 | 22.57093 | -74.13399 | 24994 ft | 392 kts | 130° |
| 2026-04-25 17:54 | 22.56039 | -74.11809 | 24761 ft | 391 kts | 130° |
| 2026-04-25 17:54 | 22.53940 | -74.08643 | 24287 ft | 390 kts | 129° |
| 2026-04-25 17:54 | 22.52361 | -74.06262 | 23924 ft | 387 kts | 129° |
| 2026-04-25 17:55 | 22.51324 | -74.04699 | 23684 ft | 385 kts | 129° |
| 2026-04-25 17:55 | 22.49766 | -74.02351 | 23290 ft | 382 kts | 129° |
| 2026-04-25 17:55 | 22.48216 | -74.00015 | 22900 ft | 379 kts | 129° |
| 2026-04-25 17:55 | 22.46682 | -73.97705 | 22531 ft | 376 kts | 129° |
| 2026-04-25 17:56 | 22.45162 | -73.95416 | 22179 ft | 372 kts | 129° |
| 2026-04-25 17:56 | 22.43653 | -73.93146 | 21828 ft | 370 kts | 129° |
| 2026-04-25 17:56 | 22.42176 | -73.90925 | 21488 ft | 367 kts | 129° |
| 2026-04-25 17:56 | 22.40686 | -73.88686 | 21141 ft | 365 kts | 129° |
| 2026-04-25 17:57 | 22.39206 | -73.86462 | 20805 ft | 363 kts | 129° |
| 2026-04-25 17:57 | 22.37730 | -73.84246 | 20469 ft | 361 kts | 129° |
| 2026-04-25 17:57 | 22.36264 | -73.82045 | 20126 ft | 360 kts | 128° |
| 2026-04-25 17:57 | 22.35294 | -73.80590 | 19905 ft | 359 kts | 128° |
| 2026-04-25 17:58 | 22.33365 | -73.77697 | 19458 ft | 356 kts | 128° |
| 2026-04-25 17:58 | 22.31922 | -73.75533 | 19123 ft | 354 kts | 128° |
| 2026-04-25 17:58 | 22.30483 | -73.73376 | 18784 ft | 352 kts | 128° |
| 2026-04-25 17:58 | 22.29055 | -73.71235 | 18439 ft | 350 kts | 128° |
| 2026-04-25 17:59 | 22.27637 | -73.69111 | 18084 ft | 347 kts | 128° |
| 2026-04-25 17:59 | 22.26231 | -73.67006 | 17713 ft | 344 kts | 128° |
| 2026-04-25 17:59 | 22.24855 | -73.64946 | 17365 ft | 340 kts | 128° |
| 2026-04-25 17:59 | 22.23480 | -73.62889 | 17027 ft | 336 kts | 128° |
| 2026-04-25 18:00 | 22.22118 | -73.60852 | 16700 ft | 333 kts | 128° |
| 2026-04-25 18:00 | 22.20766 | -73.58831 | 16373 ft | 330 kts | 128° |
| 2026-04-25 18:00 | 22.19422 | -73.56822 | 16044 ft | 328 kts | 128° |
| 2026-04-25 18:00 | 22.18083 | -73.54822 | 15722 ft | 326 kts | 128° |
| 2026-04-25 18:01 | 22.16771 | -73.52864 | 15412 ft | 325 kts | 128° |
| 2026-04-25 18:01 | 22.15450 | -73.50892 | 15098 ft | 324 kts | 128° |
| 2026-04-25 18:01 | 22.14132 | -73.48926 | 14777 ft | 322 kts | 128° |
| 2026-04-25 18:01 | 22.12818 | -73.46967 | 14453 ft | 321 kts | 128° |
| 2026-04-25 18:02 | 22.11510 | -73.45017 | 14125 ft | 320 kts | 128° |
| 2026-04-25 18:02 | 22.10206 | -73.43072 | 13801 ft | 318 kts | 128° |
| 2026-04-25 18:02 | 22.08924 | -73.41162 | 13445 ft | 316 kts | 128° |
| 2026-04-25 18:02 | 22.07639 | -73.39248 | 13107 ft | 313 kts | 128° |
| 2026-04-25 18:03 | 22.06363 | -73.37349 | 12779 ft | 310 kts | 128° |
| 2026-04-25 18:03 | 22.05101 | -73.35469 | 12456 ft | 308 kts | 128° |
| 2026-04-25 18:03 | 22.03864 | -73.33630 | 12149 ft | 305 kts | 128° |
| 2026-04-25 18:03 | 22.02620 | -73.31779 | 11849 ft | 303 kts | 128° |
| 2026-04-25 18:04 | 22.01383 | -73.29939 | 11528 ft | 301 kts | 128° |
| 2026-04-25 18:04 | 22.00154 | -73.28114 | 11217 ft | 300 kts | 128° |
| 2026-04-25 18:04 | 21.98931 | -73.26297 | 10910 ft | 298 kts | 128° |
| 2026-04-25 18:04 | 21.97728 | -73.24509 | 10605 ft | 297 kts | 128° |
| 2026-04-25 18:05 | 21.96515 | -73.22709 | 10301 ft | 296 kts | 128° |
| 2026-04-25 18:05 | 21.95309 | -73.20918 | 10123 ft | 290 kts | 128° |
| 2026-04-25 18:05 | 21.94144 | -73.19188 | 9985 ft | 286 kts | 128° |
| 2026-04-25 18:05 | 21.92957 | -73.17428 | 9713 ft | 292 kts | 128° |
| 2026-04-25 18:06 | 21.91764 | -73.15659 | 9398 ft | 290 kts | 128° |
| 2026-04-25 18:06 | 21.90589 | -73.13917 | 9101 ft | 286 kts | 128° |
| 2026-04-25 18:06 | 21.89422 | -73.12186 | 8808 ft | 283 kts | 128° |
| 2026-04-25 18:06 | 21.88294 | -73.10513 | 8530 ft | 278 kts | 128° |
| 2026-04-25 18:07 | 21.87150 | -73.08820 | 8246 ft | 281 kts | 128° |
| 2026-04-25 18:07 | 21.85993 | -73.07107 | 7975 ft | 282 kts | 128° |
| 2026-04-25 18:07 | 21.84844 | -73.05406 | 7690 ft | 279 kts | 128° |
| 2026-04-25 18:07 | 21.83704 | -73.03719 | 7410 ft | 276 kts | 128° |
| 2026-04-25 18:08 | 21.82607 | -73.02096 | 7132 ft | 268 kts | 128° |
| 2026-04-25 18:08 | 21.81792 | -73.00304 | 6895 ft | 266 kts | 104° |
| 2026-04-25 18:08 | 21.81565 | -72.98352 | 6747 ft | 261 kts | 95° |
| 2026-04-25 18:08 | 21.81446 | -72.96387 | 6588 ft | 264 kts | 94° |
| 2026-04-25 18:09 | 21.81341 | -72.94427 | 6426 ft | 267 kts | 94° |
| 2026-04-25 18:09 | 21.81233 | -72.92430 | 6249 ft | 265 kts | 94° |
| 2026-04-25 18:09 | 21.81122 | -72.90453 | 6073 ft | 264 kts | 94° |
| 2026-04-25 18:09 | 21.81046 | -72.89148 | 5947 ft | 263 kts | 95° |
| 2026-04-25 18:10 | 21.80890 | -72.86517 | 5694 ft | 262 kts | 95° |
| 2026-04-25 18:10 | 21.80772 | -72.84580 | 5524 ft | 261 kts | 95° |
| 2026-04-25 18:10 | 21.80651 | -72.82626 | 5358 ft | 260 kts | 95° |
| 2026-04-25 18:10 | 21.80530 | -72.80681 | 5199 ft | 260 kts | 95° |
| 2026-04-25 18:11 | 21.80409 | -72.78743 | 5039 ft | 259 kts | 95° |
| 2026-04-25 18:11 | 21.80287 | -72.76809 | 4883 ft | 259 kts | 95° |
| 2026-04-25 18:11 | 21.80165 | -72.74874 | 4722 ft | 259 kts | 95° |
| 2026-04-25 18:11 | 21.80043 | -72.72949 | 4553 ft | 258 kts | 95° |
| 2026-04-25 18:12 | 21.79922 | -72.71040 | 4390 ft | 258 kts | 95° |
| 2026-04-25 18:12 | 21.79799 | -72.69115 | 4224 ft | 257 kts | 95° |
| 2026-04-25 18:12 | 21.79676 | -72.67196 | 4066 ft | 256 kts | 95° |
| 2026-04-25 18:12 | 21.79554 | -72.65286 | 3906 ft | 255 kts | 95° |
| 2026-04-25 18:13 | 21.79432 | -72.63379 | 3752 ft | 254 kts | 95° |
| 2026-04-25 18:13 | 21.79310 | -72.61481 | 3598 ft | 254 kts | 95° |
| 2026-04-25 18:13 | 21.79191 | -72.59633 | 3432 ft | 246 kts | 95° |
| 2026-04-25 18:14 | 21.78964 | -72.56107 | 3130 ft | 228 kts | 95° |
| 2026-04-25 18:14 | 21.78856 | -72.54433 | 2998 ft | 226 kts | 95° |
| 2026-04-25 18:14 | 21.78746 | -72.52738 | 2862 ft | 227 kts | 95° |
| 2026-04-25 18:14 | 21.78636 | -72.51043 | 2719 ft | 227 kts | 95° |
| 2026-04-25 18:15 | 21.78526 | -72.49354 | 2584 ft | 225 kts | 95° |
| 2026-04-25 18:15 | 21.78416 | -72.47675 | 2446 ft | 224 kts | 95° |
| 2026-04-25 18:15 | 21.78311 | -72.46005 | 2300 ft | 224 kts | 94° |
| 2026-04-25 18:15 | 21.78236 | -72.44336 | 2163 ft | 223 kts | 93° |
| 2026-04-25 18:16 | 21.78160 | -72.42675 | 2023 ft | 222 kts | 93° |
| 2026-04-25 18:16 | 21.78079 | -72.41018 | 1888 ft | 221 kts | 93° |
| 2026-04-25 18:16 | 21.77919 | -72.37808 | 1635 ft | 209 kts | 93° |
| 2026-04-25 18:17 | 21.77841 | -72.36250 | 1405 ft | 205 kts | 93° |
| 2026-04-25 18:17 | 21.77767 | -72.34768 | 1150 ft | 191 kts | 93° |
| 2026-04-25 18:17 | 21.77699 | -72.33390 | 921 ft | 177 kts | 93° |
| 2026-04-25 18:17 | 21.77640 | -72.32151 | 677 ft | 161 kts | 92° |
| 2026-04-25 18:18 | 21.77609 | -72.30952 | 400 ft | 159 kts | 93° |
| 2026-04-25 18:18 | 21.77533 | -72.29779 | 217 ft | 154 kts | 95° |
| 2026-04-25 18:18 | 21.77465 | -72.28663 | 113 ft | 146 kts | 93° |
| 2026-04-25 18:18 | 21.77409 | -72.27619 | 42 ft | 126 kts | 92° |
| 2026-04-25 18:19 | 21.77371 | -72.26848 | 44 ft | 84 kts | 93° |
| 2026-04-25 18:19 | 21.77343 | -72.26292 | 43 ft | 62 kts | 93° |
| 2026-04-25 18:19 | 21.77323 | -72.25901 | 42 ft | 46 kts | 93° |
| 2026-04-25 18:19 | 21.77318 | -72.25650 | 42 ft | 23 kts | 79° |
| 2026-04-25 18:20 | 21.77342 | -72.25556 | 43 ft | 9 kts | 106° |
| 2026-04-25 18:20 | 21.77312 | -72.25552 | 43 ft | 5 kts | 238° |
| 2026-04-25 18:20 | 21.77310 | -72.25604 | 42 ft | 10 kts | 271° |
| 2026-04-25 18:20 | 21.77315 | -72.25707 | 42 ft | 18 kts | 274° |
| 2026-04-25 18:21 | 21.77322 | -72.25861 | 43 ft | 23 kts | 272° |
| 2026-04-25 18:21 | 21.77332 | -72.26057 | 43 ft | 29 kts | 272° |
| 2026-04-25 18:21 | 21.77343 | -72.26282 | 43 ft | 30 kts | 274° |
| 2026-04-25 18:21 | 21.77354 | -72.26497 | 44 ft | 28 kts | 272° |
| 2026-04-25 18:22 | 21.77365 | -72.26712 | 44 ft | 30 kts | 273° |
| 2026-04-25 18:22 | 21.77369 | -72.26788 | 44 ft | 30 kts | 273° |
| 2026-04-25 18:22 | 21.77386 | -72.27146 | 44 ft | 27 kts | 273° |
| 2026-04-25 18:22 | 21.77396 | -72.27343 | 44 ft | 25 kts | 273° |
| 2026-04-25 18:23 | 21.77421 | -72.27455 | 43 ft | 13 kts | 323° |
| 2026-04-25 18:23 | 21.77495 | -72.27461 | 44 ft | 9 kts | 6° |
| 2026-04-25 18:23 | 21.77553 | -72.27458 | 44 ft | 8 kts | 1° |
| 2026-04-25 18:23 | 21.77609 | -72.27447 | 44 ft | 8 kts | 28° |
| 2026-04-25 18:24 | 21.77645 | -72.27420 | 44 ft | 4 kts | 33° |
| 2026-04-25 18:24 | 21.77654 | -72.27414 | 44 ft | 0 kts | 33° |